createdAt,value
2023-01-17T00:01:54.325Z,3.50
2023-01-17T00:04:39.670Z,3.40
2023-01-17T00:07:29.726Z,3.30
2023-01-17T00:09:58.855Z,3.30
2023-01-17T00:12:29.852Z,3.20
2023-01-17T00:15:00.091Z,3.20
2023-01-17T00:17:30.156Z,3.20
2023-01-17T00:20:17.718Z,3.10
2023-01-17T00:23:06.242Z,3.20
2023-01-17T00:25:56.153Z,3.20
2023-01-17T00:28:24.062Z,3.10
2023-01-17T00:30:51.121Z,3.20
2023-01-17T00:33:18.597Z,3.20
2023-01-17T00:35:46.051Z,3.10
2023-01-17T00:38:16.745Z,3.10
2023-01-17T00:40:45.402Z,3.20
2023-01-17T00:43:32.934Z,3.10
2023-01-17T00:46:19.221Z,3.10
2023-01-17T00:49:05.275Z,3.00
2023-01-17T00:51:52.756Z,3.00
2023-01-17T00:54:39.967Z,3.00
2023-01-17T00:57:26.675Z,3.10
2023-01-17T01:00:12.461Z,3.10
2023-01-17T01:02:58.876Z,3.10
2023-01-17T01:05:44.554Z,3.10
2023-01-17T01:08:38.768Z,3.00
2023-01-17T01:11:26.862Z,3.10
2023-01-17T01:14:12.575Z,3.00
2023-01-17T01:16:58.899Z,2.80
2023-01-17T01:19:45.188Z,2.80
2023-01-17T01:22:31.448Z,2.70
2023-01-17T01:25:16.938Z,2.70
2023-01-17T01:28:04.468Z,2.70
2023-01-17T01:30:50.525Z,2.70
2023-01-17T01:33:20.885Z,2.70
2023-01-17T01:35:50.787Z,2.60
2023-01-17T01:38:19.760Z,2.60
2023-01-17T01:40:50.030Z,2.70
2023-01-17T01:43:21.796Z,2.70
2023-01-17T01:45:54.050Z,2.70
2023-01-17T01:48:35.098Z,2.70
2023-01-17T01:51:06.156Z,2.70
2023-01-17T01:53:38.635Z,2.60
2023-01-17T01:56:10.849Z,2.70
2023-01-17T01:58:43.236Z,2.70
2023-01-17T02:01:11.896Z,2.60
2023-01-17T02:03:42.049Z,2.60
2023-01-17T02:06:22.061Z,2.70
2023-01-17T02:08:50.534Z,2.60
2023-01-17T02:11:18.988Z,2.60
2023-01-17T02:13:48.655Z,2.60
2023-01-17T02:16:28.779Z,2.60
2023-01-17T02:19:08.835Z,2.50
2023-01-17T02:21:42.877Z,2.60
2023-01-17T02:24:41.587Z,2.60
2023-01-17T02:27:17.357Z,2.60
2023-01-17T02:30:18.914Z,2.50
2023-01-17T02:33:01.398Z,2.60
2023-01-17T02:35:41.650Z,2.50
2023-01-17T02:38:18.040Z,2.40
2023-01-17T02:40:50.287Z,2.40
2023-01-17T02:43:21.654Z,2.40
2023-01-17T02:45:49.948Z,2.30
2023-01-17T02:48:25.887Z,2.20
2023-01-17T02:51:11.245Z,2.30
2023-01-17T02:53:52.722Z,2.30
2023-01-17T02:56:34.334Z,2.30
2023-01-17T02:59:22.345Z,2.40
2023-01-17T03:02:03.262Z,2.30
2023-01-17T03:04:40.345Z,2.40
2023-01-17T03:07:16.833Z,2.30
2023-01-17T03:09:46.978Z,2.20
2023-01-17T03:12:15.317Z,2.20
2023-01-17T03:14:43.513Z,2.30
2023-01-17T03:17:11.908Z,2.20
2023-01-17T03:19:41.708Z,2.20
2023-01-17T03:22:09.934Z,2.10
2023-01-17T03:24:38.819Z,2.10
2023-01-17T03:27:07.147Z,2.10
2023-01-17T03:29:35.360Z,2.10
2023-01-17T03:32:03.807Z,2.20
2023-01-17T03:34:32.015Z,2.10
2023-01-17T03:37:01.616Z,2.10
2023-01-17T03:39:30.274Z,2.20
2023-01-17T03:41:58.629Z,2.10
2023-01-17T03:44:26.799Z,2.10
2023-01-17T03:46:55.555Z,2.10
2023-01-17T03:49:23.985Z,2.10
2023-01-17T03:51:52.284Z,2.20
2023-01-17T03:54:22.441Z,2.10
2023-01-17T03:56:50.818Z,2.10
2023-01-17T03:59:19.018Z,2.00
2023-01-17T04:01:47.629Z,2.00
2023-01-17T04:04:16.057Z,2.00
2023-01-17T04:06:44.320Z,2.00
2023-01-17T04:09:12.990Z,2.00
2023-01-17T04:11:42.625Z,2.10
2023-01-17T04:14:10.845Z,2.10
2023-01-17T04:16:40.311Z,2.10
2023-01-17T04:19:10.572Z,1.90
2023-01-17T04:21:38.797Z,1.90
2023-01-17T04:24:08.097Z,1.90
2023-01-17T04:26:36.617Z,2.00
2023-01-17T04:29:06.543Z,2.00
2023-01-17T04:31:35.458Z,2.00
2023-01-17T04:34:03.661Z,1.90
2023-01-17T04:36:32.425Z,1.90
2023-01-17T04:39:00.884Z,1.80
2023-01-17T04:41:29.162Z,1.90
2023-01-17T04:43:57.355Z,1.90
2023-01-17T04:46:27.408Z,1.80
2023-01-17T04:48:55.698Z,1.80
2023-01-17T04:51:23.976Z,1.90
2023-01-17T04:53:52.595Z,1.80
2023-01-17T04:56:20.987Z,1.80
2023-01-17T04:58:49.184Z,1.80
2023-01-17T05:01:17.746Z,1.80
2023-01-17T05:03:47.420Z,1.90
2023-01-17T05:06:15.655Z,1.80
2023-01-17T05:08:43.944Z,1.80
2023-01-17T05:11:12.167Z,1.80
2023-01-17T05:13:40.391Z,1.90
2023-01-17T05:16:09.346Z,1.80
2023-01-17T05:18:37.795Z,1.90
2023-01-17T05:21:07.789Z,1.80
2023-01-17T05:23:36.276Z,1.80
2023-01-17T05:26:04.545Z,1.80
2023-01-17T05:28:32.852Z,1.80
2023-01-17T05:31:01.560Z,1.80
2023-01-17T05:33:30.132Z,1.90
2023-01-17T05:35:58.612Z,1.80
2023-01-17T05:38:28.543Z,1.80
2023-01-17T05:40:56.996Z,1.70
2023-01-17T05:43:25.279Z,1.70
2023-01-17T05:45:53.942Z,1.60
2023-01-17T05:48:22.327Z,1.60
2023-01-17T05:50:52.312Z,1.60
2023-01-17T05:53:20.983Z,1.60
2023-01-17T05:55:50.590Z,1.50
2023-01-17T05:58:21.825Z,1.50
2023-01-17T06:00:50.719Z,1.50
2023-01-17T06:03:19.174Z,1.50
2023-01-17T06:05:47.781Z,1.40
2023-01-17T06:08:16.299Z,1.40
2023-01-17T06:10:44.537Z,1.30
2023-01-17T06:13:20.866Z,1.30
2023-01-17T06:15:49.723Z,1.30
2023-01-17T06:18:18.939Z,1.30
2023-01-17T06:20:47.275Z,1.30
2023-01-17T06:23:16.276Z,1.30
2023-01-17T06:25:46.319Z,1.30
2023-01-17T06:28:17.812Z,1.30
2023-01-17T06:30:46.659Z,1.30
2023-01-17T06:33:15.290Z,1.20
2023-01-17T06:35:50.108Z,1.20
2023-01-17T06:38:18.717Z,1.20
2023-01-17T06:40:46.988Z,1.20
2023-01-17T06:43:16.761Z,1.10
2023-01-17T06:45:44.967Z,1.10
2023-01-17T06:48:13.225Z,1.10
2023-01-17T06:50:42.147Z,1.10
2023-01-17T06:53:11.222Z,1.00
2023-01-17T06:55:40.404Z,0.90
2023-01-17T06:58:10.868Z,0.90
2023-01-17T07:00:41.225Z,0.80
2023-01-17T07:03:18.390Z,0.80
2023-01-17T07:05:46.605Z,0.80
2023-01-17T07:08:16.951Z,0.70
2023-01-17T07:10:45.987Z,0.70
2023-01-17T07:13:14.837Z,0.70
2023-01-17T07:15:44.455Z,0.60
2023-01-17T07:18:12.988Z,0.70
2023-01-17T07:20:43.382Z,0.70
2023-01-17T07:23:11.550Z,0.70
2023-01-17T07:25:40.121Z,0.80
2023-01-17T07:28:08.416Z,0.80
2023-01-17T07:30:36.760Z,0.70
2023-01-17T07:33:06.962Z,0.80
2023-01-17T07:35:35.204Z,0.80
2023-01-17T07:38:04.180Z,0.80
2023-01-17T07:40:38.691Z,0.70
2023-01-17T07:43:14.140Z,0.70
2023-01-17T07:45:44.121Z,0.70
2023-01-17T07:48:14.062Z,0.80
2023-01-17T07:50:42.283Z,0.80
2023-01-17T07:53:11.006Z,0.80
2023-01-17T07:55:39.185Z,0.80
2023-01-17T07:58:07.416Z,0.90
2023-01-17T08:00:35.914Z,0.90
2023-01-17T08:03:04.185Z,1.00
2023-01-17T08:05:33.729Z,1.30
2023-01-17T08:08:02.029Z,1.40
2023-01-17T08:10:30.210Z,1.60
2023-01-17T08:12:58.455Z,1.90
2023-01-17T08:15:27.239Z,2.40
2023-01-17T08:17:57.595Z,3.00
2023-01-17T08:20:27.927Z,3.60
2023-01-17T08:22:58.215Z,3.90
2023-01-17T08:25:27.517Z,4.00
2023-01-17T08:27:58.801Z,4.10
2023-01-17T08:30:27.972Z,4.30
2023-01-17T08:32:56.280Z,4.60
2023-01-17T08:35:25.226Z,4.90
2023-01-17T08:37:56.163Z,5.60
2023-01-17T08:40:26.210Z,6.20
2023-01-17T08:42:58.671Z,6.80
2023-01-17T08:45:27.977Z,7.40
2023-01-17T08:47:56.224Z,7.70
2023-01-17T08:50:26.323Z,7.80
2023-01-17T08:53:01.282Z,8.10
2023-01-17T08:55:31.544Z,8.40
2023-01-17T08:57:59.957Z,8.60
2023-01-17T09:00:29.928Z,8.70
2023-01-17T09:02:58.456Z,8.70
2023-01-17T09:05:27.073Z,8.70
2023-01-17T09:07:56.588Z,8.80
2023-01-17T09:10:25.185Z,9.00
2023-01-17T09:12:54.773Z,8.90
2023-01-17T09:15:23.239Z,9.00
2023-01-17T09:17:51.837Z,9.20
2023-01-17T09:20:20.320Z,9.40
2023-01-17T09:22:48.776Z,9.30
2023-01-17T09:25:17.401Z,9.30
2023-01-17T09:27:47.304Z,9.10
2023-01-17T09:30:18.013Z,9.10
2023-01-17T09:32:52.863Z,9.20
2023-01-17T09:35:21.350Z,9.10
2023-01-17T09:37:50.796Z,9.10
2023-01-17T09:40:22.999Z,9.00
2023-01-17T09:42:53.034Z,9.00
2023-01-17T09:45:22.949Z,8.90
2023-01-17T09:47:53.839Z,9.00
2023-01-17T09:50:30.770Z,9.10
2023-01-17T09:53:04.025Z,9.30
2023-01-17T09:55:41.145Z,9.50
2023-01-17T09:58:14.322Z,9.70
2023-01-17T10:00:50.188Z,10.00
2023-01-17T10:03:51.854Z,10.20
2023-01-17T10:06:44.203Z,10.50
2023-01-17T10:09:26.695Z,10.80
2023-01-17T10:12:10.269Z,11.20
2023-01-17T10:14:52.633Z,11.50
2023-01-17T10:17:36.446Z,11.70
2023-01-17T10:20:41.644Z,11.70
2023-01-17T10:23:25.294Z,11.80
2023-01-17T10:25:55.936Z,11.90
2023-01-17T10:28:28.128Z,11.90
2023-01-17T10:31:04.056Z,11.90
2023-01-17T10:33:40.991Z,11.80
2023-01-17T10:36:15.605Z,11.60
2023-01-17T10:38:49.123Z,11.80
2023-01-17T10:41:23.404Z,12.00
2023-01-17T10:44:05.989Z,12.20
2023-01-17T10:46:40.866Z,12.20
2023-01-17T10:49:17.855Z,12.50
2023-01-17T10:52:14.360Z,12.60
2023-01-17T10:55:05.134Z,12.60
2023-01-17T10:57:40.887Z,12.60
2023-01-17T11:00:39.981Z,12.70
2023-01-17T11:03:11.336Z,12.70
2023-01-17T11:05:42.841Z,12.70
2023-01-17T11:08:14.094Z,12.80
2023-01-17T11:10:45.274Z,13.00
2023-01-17T11:13:27.879Z,13.00
2023-01-17T11:15:58.870Z,13.00
2023-01-17T11:18:29.666Z,12.80
2023-01-17T11:21:12.856Z,12.90
2023-01-17T11:23:44.932Z,13.10
2023-01-17T11:26:24.507Z,12.90
2023-01-17T11:28:53.326Z,12.60
2023-01-17T11:31:27.518Z,12.60
2023-01-17T11:34:15.878Z,12.60
2023-01-17T11:36:46.388Z,12.40
2023-01-17T11:39:27.750Z,12.50
2023-01-17T11:41:56.419Z,12.50
2023-01-17T11:44:26.909Z,12.60
2023-01-17T11:47:17.158Z,12.70
2023-01-17T11:49:47.059Z,12.70
2023-01-17T11:52:24.604Z,12.60
2023-01-17T11:54:55.239Z,12.50
2023-01-17T11:57:27.382Z,12.30
2023-01-17T12:00:04.744Z,12.30
2023-01-17T12:02:57.845Z,12.30
2023-01-17T12:05:39.666Z,12.50
2023-01-17T12:08:19.470Z,12.30
2023-01-17T12:10:55.414Z,12.30
2023-01-17T12:13:55.125Z,12.10
2023-01-17T12:16:33.713Z,11.70
2023-01-17T12:19:14.108Z,11.40
2023-01-17T12:21:51.689Z,11.40
2023-01-17T12:24:46.890Z,11.40
2023-01-17T12:27:23.966Z,11.40
2023-01-17T12:30:04.005Z,11.50
2023-01-17T12:33:08.100Z,11.30
2023-01-17T12:35:41.799Z,11.20
2023-01-17T12:38:23.662Z,11.20
2023-01-17T12:41:07.563Z,11.10
2023-01-17T12:43:38.665Z,10.70
2023-01-17T12:46:21.129Z,10.40
2023-01-17T12:48:53.833Z,9.90
2023-01-17T12:51:29.579Z,9.70
2023-01-17T12:54:03.182Z,9.20
2023-01-17T12:56:37.550Z,8.70
2023-01-17T12:59:15.382Z,8.40
2023-01-17T13:01:57.797Z,8.00
2023-01-17T13:04:32.921Z,8.10
2023-01-17T13:07:10.488Z,7.90
2023-01-17T13:09:44.102Z,8.00
2023-01-17T13:12:16.428Z,7.90
2023-01-17T13:14:47.224Z,8.10
2023-01-17T13:17:31.587Z,8.20
2023-01-17T13:20:04.609Z,8.30
2023-01-17T13:22:33.844Z,8.10
2023-01-17T13:25:16.434Z,7.80
2023-01-17T13:28:04.278Z,7.70
2023-01-17T13:30:43.497Z,7.70
2023-01-17T13:33:29.840Z,7.60
2023-01-17T13:36:11.298Z,7.30
2023-01-17T13:38:56.540Z,7.00
2023-01-17T13:41:38.245Z,6.90
2023-01-17T13:44:24.721Z,6.90
2023-01-17T13:47:01.899Z,6.70
2023-01-17T13:49:48.752Z,6.80
2023-01-17T13:52:33.609Z,6.80
2023-01-17T13:55:03.668Z,6.90
2023-01-17T13:57:40.121Z,6.90
2023-01-17T14:00:55.183Z,6.70
2023-01-17T14:03:56.993Z,6.70
2023-01-17T14:06:44.434Z,6.50
2023-01-17T14:09:17.098Z,6.40
2023-01-17T14:12:00.141Z,6.40
2023-01-17T14:14:53.170Z,6.30
2023-01-17T14:17:47.164Z,6.20
2023-01-17T14:20:43.726Z,5.90
2023-01-17T14:23:29.605Z,5.90
2023-01-17T14:26:01.407Z,5.90
2023-01-17T14:28:34.157Z,5.80
2023-01-17T14:31:09.331Z,5.80
2023-01-17T14:33:41.176Z,5.90
2023-01-17T14:36:20.561Z,5.90
2023-01-17T14:38:49.398Z,5.90
2023-01-17T14:41:22.725Z,5.90
2023-01-17T14:43:52.574Z,5.90
2023-01-17T14:46:26.428Z,6.00
2023-01-17T14:49:01.966Z,5.90
2023-01-17T14:51:35.061Z,5.80
2023-01-17T14:54:14.208Z,5.80
2023-01-17T14:56:42.476Z,5.90
2023-01-17T14:59:17.448Z,5.90
2023-01-17T15:02:06.231Z,5.90
2023-01-17T15:04:40.017Z,5.90
2023-01-17T15:07:13.933Z,5.80
2023-01-17T15:09:45.053Z,5.80
2023-01-17T15:12:14.997Z,5.80
2023-01-17T15:14:46.509Z,5.80
2023-01-17T15:17:20.468Z,5.70
2023-01-17T15:19:54.277Z,5.80
2023-01-17T15:22:23.680Z,5.70
2023-01-17T15:24:52.770Z,5.70
2023-01-17T15:27:21.698Z,5.70
2023-01-17T15:29:50.413Z,5.60
2023-01-17T15:32:23.135Z,5.60
2023-01-17T15:34:53.958Z,5.50
2023-01-17T15:37:30.083Z,5.40
2023-01-17T15:40:08.609Z,5.40
2023-01-17T15:42:40.415Z,5.30
2023-01-17T15:45:15.668Z,5.20
2023-01-17T15:47:44.096Z,5.10
2023-01-17T15:50:30.335Z,5.10
2023-01-17T15:53:01.079Z,4.90
2023-01-17T15:55:33.839Z,4.80
2023-01-17T15:58:02.720Z,4.80
2023-01-17T16:00:38.334Z,4.70
2023-01-17T16:03:25.086Z,4.70
2023-01-17T16:05:57.821Z,4.60
2023-01-17T16:08:29.320Z,4.50
2023-01-17T16:11:02.310Z,4.50
2023-01-17T16:13:32.627Z,4.40
2023-01-17T16:16:15.832Z,4.30
2023-01-17T16:18:46.565Z,4.30
2023-01-17T16:21:27.889Z,4.20
2023-01-17T16:23:56.519Z,4.10
2023-01-17T16:26:25.314Z,4.10
2023-01-17T16:28:53.979Z,4.10
2023-01-17T16:31:22.423Z,4.00
2023-01-17T16:33:51.450Z,4.00
2023-01-17T16:36:21.335Z,3.90
2023-01-17T16:38:53.165Z,3.90
2023-01-17T16:41:22.108Z,3.90
2023-01-17T16:44:01.407Z,3.80
2023-01-17T16:46:30.314Z,3.80
2023-01-17T16:49:00.658Z,3.70
2023-01-17T16:51:29.106Z,3.70
2023-01-17T16:53:59.546Z,3.60
2023-01-17T16:56:27.937Z,3.50
2023-01-17T16:58:56.917Z,3.40
2023-01-17T17:01:25.517Z,3.40
2023-01-17T17:03:53.823Z,3.40
2023-01-17T17:06:22.410Z,3.30
2023-01-17T17:08:50.618Z,3.20
2023-01-17T17:11:23.264Z,3.20
2023-01-17T17:13:52.685Z,3.10
2023-01-17T17:16:23.161Z,3.10
2023-01-17T17:18:57.108Z,3.10
2023-01-17T17:21:25.448Z,3.00
2023-01-17T17:23:56.902Z,3.00
2023-01-17T17:26:29.062Z,2.90
2023-01-17T17:28:57.963Z,2.80
2023-01-17T17:31:27.030Z,2.80
2023-01-17T17:33:59.926Z,2.70
2023-01-17T17:36:28.725Z,2.70
2023-01-17T17:38:57.602Z,2.60
2023-01-17T17:41:29.106Z,2.60
2023-01-17T17:43:57.700Z,2.50
2023-01-17T17:46:27.477Z,2.50
2023-01-17T17:48:56.361Z,2.50
2023-01-17T17:51:26.881Z,2.40
2023-01-17T17:53:56.763Z,2.30
2023-01-17T17:56:26.876Z,2.30
2023-01-17T17:58:55.786Z,2.30
2023-01-17T18:01:24.341Z,2.30
2023-01-17T18:03:53.111Z,2.20
2023-01-17T18:06:21.936Z,2.20
2023-01-17T18:08:52.118Z,2.20
2023-01-17T18:11:22.932Z,2.20
2023-01-17T18:13:54.975Z,2.10
2023-01-17T18:16:25.514Z,2.10
2023-01-17T18:18:55.556Z,2.10
2023-01-17T18:21:25.658Z,2.10
2023-01-17T18:23:55.643Z,2.00
2023-01-17T18:26:26.137Z,2.00
2023-01-17T18:28:57.195Z,2.10
2023-01-17T18:31:27.165Z,2.00
2023-01-17T18:33:56.482Z,2.00
2023-01-17T18:36:26.267Z,2.00
2023-01-17T18:38:54.488Z,2.00
2023-01-17T18:41:25.216Z,2.00
2023-01-17T18:43:53.952Z,1.80
2023-01-17T18:46:25.852Z,1.80
2023-01-17T18:48:56.932Z,1.80
2023-01-17T18:51:25.927Z,1.80
2023-01-17T18:53:54.201Z,1.80
2023-01-17T18:56:23.871Z,1.80
2023-01-17T18:58:52.622Z,1.80
2023-01-17T19:01:24.185Z,1.70
2023-01-17T19:03:54.711Z,1.60
2023-01-17T19:06:25.585Z,1.50
2023-01-17T19:08:54.065Z,1.50
2023-01-17T19:11:26.979Z,1.50
2023-01-17T19:13:55.344Z,1.50
2023-01-17T19:16:28.181Z,1.50
2023-01-17T19:18:58.092Z,1.40
2023-01-17T19:21:28.857Z,1.40
2023-01-17T19:23:59.583Z,1.40
2023-01-17T19:26:30.030Z,1.40
2023-01-17T19:29:00.269Z,1.50
2023-01-17T19:31:31.731Z,1.40
2023-01-17T19:34:02.228Z,1.40
2023-01-17T19:36:34.641Z,1.40
2023-01-17T19:39:05.848Z,1.30
2023-01-17T19:41:36.564Z,1.20
2023-01-17T19:44:06.888Z,1.20
2023-01-17T19:46:37.514Z,1.20
2023-01-17T19:49:07.587Z,1.20
2023-01-17T19:51:36.834Z,1.20
2023-01-17T19:54:06.604Z,1.30
2023-01-17T19:56:35.836Z,1.30
2023-01-17T19:59:04.221Z,1.40
2023-01-17T20:01:33.886Z,1.40
2023-01-17T20:04:04.599Z,1.40
2023-01-17T20:06:34.585Z,1.40
2023-01-17T20:09:03.050Z,1.50
2023-01-17T20:11:31.430Z,1.40
2023-01-17T20:14:00.612Z,1.50
2023-01-17T20:16:31.626Z,1.50
2023-01-17T20:19:02.920Z,1.40
2023-01-17T20:21:34.519Z,1.50
2023-01-17T20:24:04.571Z,1.40
2023-01-17T20:26:37.746Z,1.40
2023-01-17T20:29:10.755Z,1.40
2023-01-17T20:31:40.498Z,1.40
2023-01-17T20:34:10.808Z,1.40
2023-01-17T20:36:42.362Z,1.50
2023-01-17T20:39:13.519Z,1.50
2023-01-17T20:41:43.418Z,1.50
2023-01-17T20:44:15.183Z,1.50
2023-01-17T20:46:44.440Z,1.50
2023-01-17T20:49:16.097Z,1.50
2023-01-17T20:51:47.031Z,1.50
2023-01-17T20:54:16.913Z,1.50
2023-01-17T20:56:47.574Z,1.50
2023-01-17T20:59:17.642Z,1.60
2023-01-17T21:01:46.736Z,1.50
2023-01-17T21:04:15.722Z,1.50
2023-01-17T21:06:46.133Z,1.50
2023-01-17T21:09:17.397Z,1.50
2023-01-17T21:11:45.905Z,1.50
2023-01-17T21:14:14.187Z,1.60
2023-01-17T21:16:42.586Z,1.50
2023-01-17T21:19:12.100Z,1.50
2023-01-17T21:21:40.563Z,1.50
2023-01-17T21:24:11.615Z,1.50
2023-01-17T21:26:44.498Z,1.60
2023-01-17T21:29:13.544Z,1.50
2023-01-17T21:31:42.747Z,1.50
2023-01-17T21:34:13.790Z,1.50
2023-01-17T21:36:43.997Z,1.60
2023-01-17T21:39:15.838Z,1.60
2023-01-17T21:41:48.199Z,1.70
2023-01-17T21:44:19.419Z,1.70
2023-01-17T21:46:52.862Z,1.60
2023-01-17T21:49:22.912Z,1.70
2023-01-17T21:52:09.068Z,1.70
2023-01-17T21:54:56.467Z,1.70
2023-01-17T21:57:42.643Z,1.70
2023-01-17T22:00:14.601Z,1.70
2023-01-17T22:02:43.258Z,1.70
2023-01-17T22:05:11.927Z,1.70
2023-01-17T22:07:40.736Z,1.60
2023-01-17T22:10:12.099Z,1.70
2023-01-17T22:12:40.709Z,1.70
2023-01-17T22:15:10.228Z,1.60
2023-01-17T22:17:39.901Z,1.70
2023-01-17T22:20:11.850Z,1.60
2023-01-17T22:22:40.149Z,1.60
2023-01-17T22:25:10.276Z,1.70
2023-01-17T22:27:38.708Z,1.60
2023-01-17T22:30:12.904Z,1.60
2023-01-17T22:32:41.359Z,1.60
2023-01-17T22:35:10.628Z,1.60
2023-01-17T22:37:38.820Z,1.60
2023-01-17T22:40:10.367Z,1.50
2023-01-17T22:42:40.467Z,1.50
2023-01-17T22:45:10.373Z,1.50
2023-01-17T22:47:39.615Z,1.50
2023-01-17T22:50:09.024Z,1.40
2023-01-17T22:52:37.337Z,1.40
2023-01-17T22:55:06.420Z,1.30
2023-01-17T22:57:34.666Z,1.30
2023-01-17T23:00:14.749Z,1.30
2023-01-17T23:02:43.781Z,1.20
2023-01-17T23:05:12.645Z,1.20
2023-01-17T23:07:44.390Z,1.20
2023-01-17T23:10:13.749Z,1.30
2023-01-17T23:12:40.980Z,1.30
2023-01-17T23:15:27.976Z,1.30
2023-01-17T23:18:13.961Z,1.30
2023-01-17T23:20:42.529Z,1.30
2023-01-17T23:23:10.745Z,1.30
2023-01-17T23:25:39.001Z,1.30
2023-01-17T23:28:11.905Z,1.30
2023-01-17T23:30:43.038Z,1.30
2023-01-17T23:33:13.906Z,1.30
2023-01-17T23:35:44.335Z,1.20
2023-01-17T23:38:30.073Z,1.20
2023-01-17T23:41:19.678Z,1.20
2023-01-17T23:43:52.667Z,1.10
2023-01-17T23:46:24.008Z,1.00
2023-01-17T23:48:52.297Z,1.00
2023-01-17T23:51:20.781Z,1.00
2023-01-17T23:53:50.977Z,0.90
2023-01-17T23:56:22.107Z,0.90
2023-01-17T23:58:50.736Z,0.90
